Terminal Aerodrome Forecast
Issued by NWS

Home | Current Version | Previous Version | Text Only | Print | Product List | Glossary On
Versions: 1 2 3 4 5 6 7 8 9 10 11 12 13 14 15 16
000
FTUS45 KFGZ 191100
TAFPRC
TAF
KPRC 191127Z 1912/2012 19005KT P6SM SCT060 SCT100
     FM191900 22010KT P6SM BKN060 BKN120
      TEMPO 1920/1924 -SHRA BKN050
     FM200200 20005KT P6SM SCT080 SCT120=

USA.gov is the U.S. government's official web portal to all federal, state and local government web resources and services.